sensor_id;sensor_type;location;lat;lon;timestamp;P1;durP1;ratioP1;P2;durP2;ratioP2
39750;SDS011;37579;51.074;17.004;2024-01-10T00:01:42;23.40;;;14.98;;
39750;SDS011;37579;51.074;17.004;2024-01-10T00:04:07;24.70;;;14.65;;
39750;SDS011;37579;51.074;17.004;2024-01-10T00:06:33;22.48;;;14.80;;
39750;SDS011;37579;51.074;17.004;2024-01-10T00:08:59;20.50;;;14.32;;
39750;SDS011;37579;51.074;17.004;2024-01-10T00:11:25;20.85;;;13.93;;
39750;SDS011;37579;51.074;17.004;2024-01-10T00:13:50;21.58;;;14.45;;
39750;SDS011;37579;51.074;17.004;2024-01-10T00:16:17;22.15;;;15.02;;
39750;SDS011;37579;51.074;17.004;2024-01-10T00:18:42;23.58;;;15.25;;
39750;SDS011;37579;51.074;17.004;2024-01-10T00:21:09;23.98;;;15.77;;
39750;SDS011;37579;51.074;17.004;2024-01-10T00:23:35;21.42;;;14.63;;
39750;SDS011;37579;51.074;17.004;2024-01-10T00:26:01;21.65;;;14.93;;
39750;SDS011;37579;51.074;17.004;2024-01-10T00:28:27;20.40;;;13.60;;
39750;SDS011;37579;51.074;17.004;2024-01-10T00:30:52;23.05;;;15.40;;
39750;SDS011;37579;51.074;17.004;2024-01-10T00:33:18;24.45;;;15.65;;
39750;SDS011;37579;51.074;17.004;2024-01-10T00:35:44;22.95;;;15.38;;
39750;SDS011;37579;51.074;17.004;2024-01-10T00:38:10;24.25;;;15.57;;
39750;SDS011;37579;51.074;17.004;2024-01-10T00:40:35;23.63;;;15.93;;
39750;SDS011;37579;51.074;17.004;2024-01-10T00:43:01;25.00;;;15.32;;
39750;SDS011;37579;51.074;17.004;2024-01-10T00:45:27;24.30;;;15.68;;
39750;SDS011;37579;51.074;17.004;2024-01-10T00:47:53;22.98;;;15.45;;
39750;SDS011;37579;51.074;17.004;2024-01-10T00:50:19;24.10;;;15.43;;
39750;SDS011;37579;51.074;17.004;2024-01-10T00:52:45;23.77;;;16.13;;
39750;SDS011;37579;51.074;17.004;2024-01-10T00:55:11;22.63;;;15.07;;
39750;SDS011;37579;51.074;17.004;2024-01-10T00:57:37;24.85;;;16.70;;
39750;SDS011;37579;51.074;17.004;2024-01-10T01:00:12;22.42;;;14.73;;
39750;SDS011;37579;51.074;17.004;2024-01-10T01:02:38;24.45;;;16.20;;
39750;SDS011;37579;51.074;17.004;2024-01-10T01:05:07;23.10;;;15.80;;
39750;SDS011;37579;51.074;17.004;2024-01-10T01:07:33;24.45;;;15.68;;
39750;SDS011;37579;51.074;17.004;2024-01-10T01:09:59;24.42;;;15.82;;
39750;SDS011;37579;51.074;17.004;2024-01-10T01:12:24;25.85;;;16.58;;
39750;SDS011;37579;51.074;17.004;2024-01-10T01:14:50;25.75;;;15.75;;
39750;SDS011;37579;51.074;17.004;2024-01-10T01:17:16;26.17;;;16.15;;
39750;SDS011;37579;51.074;17.004;2024-01-10T01:19:42;24.40;;;15.75;;
39750;SDS011;37579;51.074;17.004;2024-01-10T01:22:08;23.80;;;15.50;;
39750;SDS011;37579;51.074;17.004;2024-01-10T01:24:34;24.98;;;16.80;;
39750;SDS011;37579;51.074;17.004;2024-01-10T01:26:59;25.27;;;15.95;;
39750;SDS011;37579;51.074;17.004;2024-01-10T01:29:28;24.70;;;16.42;;
39750;SDS011;37579;51.074;17.004;2024-01-10T01:31:54;25.48;;;16.83;;
39750;SDS011;37579;51.074;17.004;2024-01-10T01:34:20;24.10;;;16.98;;
39750;SDS011;37579;51.074;17.004;2024-01-10T01:36:45;27.55;;;17.58;;
39750;SDS011;37579;51.074;17.004;2024-01-10T01:39:11;26.88;;;17.98;;
39750;SDS011;37579;51.074;17.004;2024-01-10T01:41:40;25.73;;;17.48;;
39750;SDS011;37579;51.074;17.004;2024-01-10T01:44:06;24.65;;;17.35;;
39750;SDS011;37579;51.074;17.004;2024-01-10T01:46:32;24.52;;;17.10;;
39750;SDS011;37579;51.074;17.004;2024-01-10T01:48:58;26.13;;;17.48;;
39750;SDS011;37579;51.074;17.004;2024-01-10T01:51:24;26.52;;;17.52;;
39750;SDS011;37579;51.074;17.004;2024-01-10T01:53:52;27.10;;;17.33;;
39750;SDS011;37579;51.074;17.004;2024-01-10T01:56:18;25.85;;;16.85;;
39750;SDS011;37579;51.074;17.004;2024-01-10T01:58:45;25.60;;;16.88;;
39750;SDS011;37579;51.074;17.004;2024-01-10T02:01:11;25.85;;;17.30;;
39750;SDS011;37579;51.074;17.004;2024-01-10T02:03:37;25.30;;;17.23;;
39750;SDS011;37579;51.074;17.004;2024-01-10T02:06:03;26.92;;;17.50;;
39750;SDS011;37579;51.074;17.004;2024-01-10T02:08:30;27.45;;;18.05;;
39750;SDS011;37579;51.074;17.004;2024-01-10T02:10:59;27.65;;;17.92;;
39750;SDS011;37579;51.074;17.004;2024-01-10T02:13:27;25.38;;;17.02;;
39750;SDS011;37579;51.074;17.004;2024-01-10T02:15:54;28.33;;;18.42;;
39750;SDS011;37579;51.074;17.004;2024-01-10T02:18:20;26.42;;;17.55;;
39750;SDS011;37579;51.074;17.004;2024-01-10T02:20:46;26.83;;;18.30;;
39750;SDS011;37579;51.074;17.004;2024-01-10T02:23:12;25.42;;;17.83;;
39750;SDS011;37579;51.074;17.004;2024-01-10T02:25:38;27.55;;;18.67;;
39750;SDS011;37579;51.074;17.004;2024-01-10T02:28:05;25.92;;;17.70;;
39750;SDS011;37579;51.074;17.004;2024-01-10T02:30:32;27.88;;;18.73;;
39750;SDS011;37579;51.074;17.004;2024-01-10T02:32:58;29.88;;;18.65;;
39750;SDS011;37579;51.074;17.004;2024-01-10T02:35:24;28.75;;;18.42;;
39750;SDS011;37579;51.074;17.004;2024-01-10T02:37:50;28.98;;;19.20;;
39750;SDS011;37579;51.074;17.004;2024-01-10T02:40:16;26.20;;;18.45;;
39750;SDS011;37579;51.074;17.004;2024-01-10T02:42:42;31.33;;;19.05;;
39750;SDS011;37579;51.074;17.004;2024-01-10T02:45:08;28.27;;;19.05;;
39750;SDS011;37579;51.074;17.004;2024-01-10T02:47:35;27.80;;;18.73;;
39750;SDS011;37579;51.074;17.004;2024-01-10T02:50:02;28.70;;;18.80;;
39750;SDS011;37579;51.074;17.004;2024-01-10T02:52:29;27.20;;;18.17;;
39750;SDS011;37579;51.074;17.004;2024-01-10T02:54:54;28.38;;;18.52;;
39750;SDS011;37579;51.074;17.004;2024-01-10T02:57:20;28.42;;;17.80;;
39750;SDS011;37579;51.074;17.004;2024-01-10T02:59:46;29.35;;;18.23;;
39750;SDS011;37579;51.074;17.004;2024-01-10T03:02:13;29.77;;;18.77;;
39750;SDS011;37579;51.074;17.004;2024-01-10T03:04:40;28.95;;;19.23;;
39750;SDS011;37579;51.074;17.004;2024-01-10T03:07:06;27.75;;;18.85;;
39750;SDS011;37579;51.074;17.004;2024-01-10T03:09:35;26.10;;;18.40;;
39750;SDS011;37579;51.074;17.004;2024-01-10T03:12:04;28.65;;;18.73;;
39750;SDS011;37579;51.074;17.004;2024-01-10T03:14:32;30.08;;;20.27;;
39750;SDS011;37579;51.074;17.004;2024-01-10T03:17:00;28.85;;;18.85;;
39750;SDS011;37579;51.074;17.004;2024-01-10T03:19:27;29.67;;;19.17;;
39750;SDS011;37579;51.074;17.004;2024-01-10T03:21:56;29.88;;;19.48;;
39750;SDS011;37579;51.074;17.004;2024-01-10T03:24:22;29.23;;;18.92;;
39750;SDS011;37579;51.074;17.004;2024-01-10T03:26:51;29.60;;;20.13;;
39750;SDS011;37579;51.074;17.004;2024-01-10T03:29:18;27.92;;;19.15;;
39750;SDS011;37579;51.074;17.004;2024-01-10T03:31:44;31.00;;;19.35;;
39750;SDS011;37579;51.074;17.004;2024-01-10T03:34:10;29.10;;;18.67;;
39750;SDS011;37579;51.074;17.004;2024-01-10T03:36:36;28.08;;;18.77;;
39750;SDS011;37579;51.074;17.004;2024-01-10T03:39:02;30.70;;;19.40;;
39750;SDS011;37579;51.074;17.004;2024-01-10T03:41:27;29.95;;;20.35;;
39750;SDS011;37579;51.074;17.004;2024-01-10T03:43:53;28.83;;;19.02;;
39750;SDS011;37579;51.074;17.004;2024-01-10T03:46:19;30.23;;;20.02;;
39750;SDS011;37579;51.074;17.004;2024-01-10T03:48:45;29.95;;;20.27;;
39750;SDS011;37579;51.074;17.004;2024-01-10T03:51:17;30.25;;;19.40;;
39750;SDS011;37579;51.074;17.004;2024-01-10T03:53:46;30.00;;;19.92;;
39750;SDS011;37579;51.074;17.004;2024-01-10T03:56:14;33.97;;;20.92;;
39750;SDS011;37579;51.074;17.004;2024-01-10T03:58:40;27.70;;;19.27;;
39750;SDS011;37579;51.074;17.004;2024-01-10T04:01:06;30.08;;;19.52;;
39750;SDS011;37579;51.074;17.004;2024-01-10T04:03:32;32.63;;;20.90;;
39750;SDS011;37579;51.074;17.004;2024-01-10T04:05:59;30.50;;;19.70;;
39750;SDS011;37579;51.074;17.004;2024-01-10T04:08:25;33.15;;;20.92;;
39750;SDS011;37579;51.074;17.004;2024-01-10T04:10:51;27.98;;;18.95;;
39750;SDS011;37579;51.074;17.004;2024-01-10T04:13:17;29.38;;;19.63;;
39750;SDS011;37579;51.074;17.004;2024-01-10T04:15:43;28.40;;;19.73;;
39750;SDS011;37579;51.074;17.004;2024-01-10T04:18:08;28.65;;;20.55;;
39750;SDS011;37579;51.074;17.004;2024-01-10T04:20:34;28.75;;;19.65;;
39750;SDS011;37579;51.074;17.004;2024-01-10T04:23:00;31.42;;;20.00;;
39750;SDS011;37579;51.074;17.004;2024-01-10T04:25:26;30.30;;;19.95;;
39750;SDS011;37579;51.074;17.004;2024-01-10T04:27:51;30.95;;;20.75;;
39750;SDS011;37579;51.074;17.004;2024-01-10T04:30:17;27.17;;;18.50;;
39750;SDS011;37579;51.074;17.004;2024-01-10T04:32:43;30.98;;;20.83;;
39750;SDS011;37579;51.074;17.004;2024-01-10T04:35:09;29.75;;;19.58;;
39750;SDS011;37579;51.074;17.004;2024-01-10T04:37:35;28.85;;;20.13;;
39750;SDS011;37579;51.074;17.004;2024-01-10T04:40:00;30.60;;;20.30;;
39750;SDS011;37579;51.074;17.004;2024-01-10T04:42:26;29.98;;;20.08;;
39750;SDS011;37579;51.074;17.004;2024-01-10T04:44:52;29.83;;;20.25;;
39750;SDS011;37579;51.074;17.004;2024-01-10T04:47:18;29.73;;;19.23;;
39750;SDS011;37579;51.074;17.004;2024-01-10T04:49:43;29.65;;;19.98;;
39750;SDS011;37579;51.074;17.004;2024-01-10T04:52:09;31.00;;;19.92;;
39750;SDS011;37579;51.074;17.004;2024-01-10T04:54:35;30.83;;;21.67;;
39750;SDS011;37579;51.074;17.004;2024-01-10T04:57:01;33.35;;;21.38;;
39750;SDS011;37579;51.074;17.004;2024-01-10T04:59:26;28.77;;;20.15;;
39750;SDS011;37579;51.074;17.004;2024-01-10T05:01:52;33.20;;;21.05;;
39750;SDS011;37579;51.074;17.004;2024-01-10T05:04:18;32.53;;;21.58;;
39750;SDS011;37579;51.074;17.004;2024-01-10T05:06:44;32.28;;;20.77;;
39750;SDS011;37579;51.074;17.004;2024-01-10T05:09:10;32.33;;;20.95;;
39750;SDS011;37579;51.074;17.004;2024-01-10T05:11:35;31.50;;;21.08;;
39750;SDS011;37579;51.074;17.004;2024-01-10T05:14:02;29.77;;;20.73;;
39750;SDS011;37579;51.074;17.004;2024-01-10T05:16:28;32.20;;;20.88;;
39750;SDS011;37579;51.074;17.004;2024-01-10T05:18:54;29.10;;;20.25;;
39750;SDS011;37579;51.074;17.004;2024-01-10T05:21:19;29.05;;;20.00;;
39750;SDS011;37579;51.074;17.004;2024-01-10T05:23:46;32.05;;;22.25;;
39750;SDS011;37579;51.074;17.004;2024-01-10T05:26:11;34.45;;;21.67;;
39750;SDS011;37579;51.074;17.004;2024-01-10T05:28:37;31.45;;;21.38;;
39750;SDS011;37579;51.074;17.004;2024-01-10T05:31:03;34.13;;;21.50;;
39750;SDS011;37579;51.074;17.004;2024-01-10T05:33:29;30.25;;;20.52;;
39750;SDS011;37579;51.074;17.004;2024-01-10T05:35:55;30.80;;;19.92;;
39750;SDS011;37579;51.074;17.004;2024-01-10T05:38:21;29.77;;;20.65;;
39750;SDS011;37579;51.074;17.004;2024-01-10T05:40:46;31.30;;;20.95;;
39750;SDS011;37579;51.074;17.004;2024-01-10T05:43:12;31.00;;;20.52;;
39750;SDS011;37579;51.074;17.004;2024-01-10T05:45:38;31.17;;;21.27;;
39750;SDS011;37579;51.074;17.004;2024-01-10T05:48:04;30.08;;;20.80;;
39750;SDS011;37579;51.074;17.004;2024-01-10T05:50:31;31.42;;;20.55;;
39750;SDS011;37579;51.074;17.004;2024-01-10T05:52:57;32.22;;;21.25;;
39750;SDS011;37579;51.074;17.004;2024-01-10T05:55:23;33.30;;;22.48;;
39750;SDS011;37579;51.074;17.004;2024-01-10T05:57:48;31.98;;;21.20;;
39750;SDS011;37579;51.074;17.004;2024-01-10T06:00:15;31.45;;;21.33;;
39750;SDS011;37579;51.074;17.004;2024-01-10T06:02:42;32.85;;;21.25;;
39750;SDS011;37579;51.074;17.004;2024-01-10T06:05:11;32.58;;;21.77;;
39750;SDS011;37579;51.074;17.004;2024-01-10T06:07:37;33.83;;;21.52;;
39750;SDS011;37579;51.074;17.004;2024-01-10T06:10:04;30.23;;;21.17;;
39750;SDS011;37579;51.074;17.004;2024-01-10T06:12:31;32.65;;;22.17;;
39750;SDS011;37579;51.074;17.004;2024-01-10T06:14:56;34.33;;;22.00;;
39750;SDS011;37579;51.074;17.004;2024-01-10T06:17:23;33.88;;;22.13;;
39750;SDS011;37579;51.074;17.004;2024-01-10T06:19:49;31.73;;;20.60;;
39750;SDS011;37579;51.074;17.004;2024-01-10T06:22:15;30.92;;;21.13;;
39750;SDS011;37579;51.074;17.004;2024-01-10T06:24:42;32.78;;;21.55;;
39750;SDS011;37579;51.074;17.004;2024-01-10T06:27:10;30.48;;;21.38;;
39750;SDS011;37579;51.074;17.004;2024-01-10T06:29:36;33.20;;;22.02;;
39750;SDS011;37579;51.074;17.004;2024-01-10T06:32:05;35.10;;;22.75;;
39750;SDS011;37579;51.074;17.004;2024-01-10T06:34:31;31.75;;;20.83;;
39750;SDS011;37579;51.074;17.004;2024-01-10T06:36:58;32.25;;;21.90;;
39750;SDS011;37579;51.074;17.004;2024-01-10T06:39:24;32.90;;;21.90;;
39750;SDS011;37579;51.074;17.004;2024-01-10T06:41:50;32.97;;;21.83;;
39750;SDS011;37579;51.074;17.004;2024-01-10T06:44:16;32.38;;;22.13;;
39750;SDS011;37579;51.074;17.004;2024-01-10T06:46:45;33.60;;;22.45;;
39750;SDS011;37579;51.074;17.004;2024-01-10T06:49:11;32.75;;;22.63;;
39750;SDS011;37579;51.074;17.004;2024-01-10T06:51:38;31.42;;;21.42;;
39750;SDS011;37579;51.074;17.004;2024-01-10T06:54:05;33.25;;;22.40;;
39750;SDS011;37579;51.074;17.004;2024-01-10T06:56:33;34.00;;;21.77;;
39750;SDS011;37579;51.074;17.004;2024-01-10T06:59:00;31.15;;;21.23;;
39750;SDS011;37579;51.074;17.004;2024-01-10T07:01:28;33.30;;;21.60;;
39750;SDS011;37579;51.074;17.004;2024-01-10T07:03:55;34.42;;;22.00;;
39750;SDS011;37579;51.074;17.004;2024-01-10T07:06:22;33.70;;;22.05;;
39750;SDS011;37579;51.074;17.004;2024-01-10T07:08:50;34.20;;;21.60;;
39750;SDS011;37579;51.074;17.004;2024-01-10T07:11:17;31.60;;;22.02;;
39750;SDS011;37579;51.074;17.004;2024-01-10T07:13:45;34.67;;;22.88;;
39750;SDS011;37579;51.074;17.004;2024-01-10T07:16:12;33.20;;;23.00;;
39750;SDS011;37579;51.074;17.004;2024-01-10T07:18:43;32.67;;;22.85;;
39750;SDS011;37579;51.074;17.004;2024-01-10T07:21:12;34.67;;;22.88;;
39750;SDS011;37579;51.074;17.004;2024-01-10T07:23:39;35.70;;;22.40;;
39750;SDS011;37579;51.074;17.004;2024-01-10T07:26:08;32.10;;;23.00;;
39750;SDS011;37579;51.074;17.004;2024-01-10T07:28:35;33.92;;;22.55;;
39750;SDS011;37579;51.074;17.004;2024-01-10T07:31:03;32.83;;;22.05;;
39750;SDS011;37579;51.074;17.004;2024-01-10T07:33:30;37.83;;;23.10;;
39750;SDS011;37579;51.074;17.004;2024-01-10T07:35:58;32.83;;;22.23;;
39750;SDS011;37579;51.074;17.004;2024-01-10T07:38:25;36.25;;;23.58;;
39750;SDS011;37579;51.074;17.004;2024-01-10T07:40:52;33.70;;;22.17;;
39750;SDS011;37579;51.074;17.004;2024-01-10T07:43:19;33.95;;;22.55;;
39750;SDS011;37579;51.074;17.004;2024-01-10T07:45:46;34.60;;;23.55;;
39750;SDS011;37579;51.074;17.004;2024-01-10T07:48:14;34.58;;;22.83;;
39750;SDS011;37579;51.074;17.004;2024-01-10T07:50:41;33.65;;;22.98;;
39750;SDS011;37579;51.074;17.004;2024-01-10T07:53:08;33.83;;;22.52;;
39750;SDS011;37579;51.074;17.004;2024-01-10T07:55:35;34.85;;;23.77;;
39750;SDS011;37579;51.074;17.004;2024-01-10T07:58:03;37.92;;;23.70;;
39750;SDS011;37579;51.074;17.004;2024-01-10T08:00:30;34.00;;;23.60;;
39750;SDS011;37579;51.074;17.004;2024-01-10T08:02:58;36.70;;;23.50;;
39750;SDS011;37579;51.074;17.004;2024-01-10T08:05:25;36.47;;;22.45;;
39750;SDS011;37579;51.074;17.004;2024-01-10T08:07:52;35.17;;;22.77;;
39750;SDS011;37579;51.074;17.004;2024-01-10T08:10:19;34.50;;;23.55;;
39750;SDS011;37579;51.074;17.004;2024-01-10T08:12:46;34.28;;;23.33;;
39750;SDS011;37579;51.074;17.004;2024-01-10T08:15:13;34.10;;;22.67;;
39750;SDS011;37579;51.074;17.004;2024-01-10T08:17:40;36.08;;;23.55;;
39750;SDS011;37579;51.074;17.004;2024-01-10T08:20:08;34.95;;;23.42;;
39750;SDS011;37579;51.074;17.004;2024-01-10T08:22:36;33.40;;;22.65;;
39750;SDS011;37579;51.074;17.004;2024-01-10T08:25:03;34.28;;;22.95;;
39750;SDS011;37579;51.074;17.004;2024-01-10T08:27:31;35.58;;;23.23;;
39750;SDS011;37579;51.074;17.004;2024-01-10T08:29:59;35.33;;;22.83;;
39750;SDS011;37579;51.074;17.004;2024-01-10T08:32:26;34.50;;;23.05;;
39750;SDS011;37579;51.074;17.004;2024-01-10T08:34:53;36.38;;;23.10;;
39750;SDS011;37579;51.074;17.004;2024-01-10T08:37:20;34.33;;;22.80;;
39750;SDS011;37579;51.074;17.004;2024-01-10T08:39:47;34.38;;;23.70;;
39750;SDS011;37579;51.074;17.004;2024-01-10T08:42:15;34.60;;;23.00;;
39750;SDS011;37579;51.074;17.004;2024-01-10T08:44:42;34.00;;;22.98;;
39750;SDS011;37579;51.074;17.004;2024-01-10T08:47:09;32.80;;;23.55;;
39750;SDS011;37579;51.074;17.004;2024-01-10T08:49:36;37.67;;;23.33;;
39750;SDS011;37579;51.074;17.004;2024-01-10T08:52:03;34.78;;;23.42;;
39750;SDS011;37579;51.074;17.004;2024-01-10T08:54:31;36.67;;;22.55;;
39750;SDS011;37579;51.074;17.004;2024-01-10T08:56:59;31.25;;;21.75;;
39750;SDS011;37579;51.074;17.004;2024-01-10T08:59:26;35.85;;;22.90;;
39750;SDS011;37579;51.074;17.004;2024-01-10T09:01:53;34.67;;;23.20;;
39750;SDS011;37579;51.074;17.004;2024-01-10T09:04:20;32.10;;;22.85;;
39750;SDS011;37579;51.074;17.004;2024-01-10T09:06:47;36.25;;;24.25;;
39750;SDS011;37579;51.074;17.004;2024-01-10T09:09:15;36.25;;;25.05;;
39750;SDS011;37579;51.074;17.004;2024-01-10T09:11:46;39.70;;;24.60;;
39750;SDS011;37579;51.074;17.004;2024-01-10T09:14:13;37.72;;;24.98;;
39750;SDS011;37579;51.074;17.004;2024-01-10T09:16:40;37.78;;;25.00;;
39750;SDS011;37579;51.074;17.004;2024-01-10T09:19:08;39.15;;;25.70;;
39750;SDS011;37579;51.074;17.004;2024-01-10T09:21:35;34.60;;;23.63;;
39750;SDS011;37579;51.074;17.004;2024-01-10T09:24:02;40.90;;;25.58;;
39750;SDS011;37579;51.074;17.004;2024-01-10T09:26:33;36.38;;;24.48;;
39750;SDS011;37579;51.074;17.004;2024-01-10T09:29:00;34.50;;;24.02;;
39750;SDS011;37579;51.074;17.004;2024-01-10T09:31:28;36.38;;;24.30;;
39750;SDS011;37579;51.074;17.004;2024-01-10T09:33:55;37.88;;;23.75;;
39750;SDS011;37579;51.074;17.004;2024-01-10T09:36:23;35.95;;;24.08;;
39750;SDS011;37579;51.074;17.004;2024-01-10T09:38:50;40.08;;;24.95;;
39750;SDS011;37579;51.074;17.004;2024-01-10T09:41:17;35.38;;;23.88;;
39750;SDS011;37579;51.074;17.004;2024-01-10T09:43:45;34.65;;;24.52;;
39750;SDS011;37579;51.074;17.004;2024-01-10T09:46:12;35.22;;;24.30;;
39750;SDS011;37579;51.074;17.004;2024-01-10T09:48:40;35.45;;;24.38;;
39750;SDS011;37579;51.074;17.004;2024-01-10T09:51:07;34.88;;;23.88;;
39750;SDS011;37579;51.074;17.004;2024-01-10T09:53:35;36.40;;;24.20;;
39750;SDS011;37579;51.074;17.004;2024-01-10T09:56:08;37.37;;;24.83;;
39750;SDS011;37579;51.074;17.004;2024-01-10T10:00:48;39.33;;;23.27;;
39750;SDS011;37579;51.074;17.004;2024-01-10T10:03:14;31.45;;;21.00;;
39750;SDS011;37579;51.074;17.004;2024-01-10T10:05:42;27.55;;;17.30;;
39750;SDS011;37579;51.074;17.004;2024-01-10T10:08:11;28.55;;;18.55;;
39750;SDS011;37579;51.074;17.004;2024-01-10T10:10:38;26.85;;;17.73;;
39750;SDS011;37579;51.074;17.004;2024-01-10T10:13:10;25.65;;;17.00;;
39750;SDS011;37579;51.074;17.004;2024-01-10T10:15:57;22.30;;;15.57;;
39750;SDS011;37579;51.074;17.004;2024-01-10T10:18:24;24.23;;;16.17;;
39750;SDS011;37579;51.074;17.004;2024-01-10T10:20:49;22.85;;;15.85;;
39750;SDS011;37579;51.074;17.004;2024-01-10T10:23:33;29.67;;;15.77;;
39750;SDS011;37579;51.074;17.004;2024-01-10T10:25:59;21.45;;;14.50;;
39750;SDS011;37579;51.074;17.004;2024-01-10T10:28:35;22.98;;;14.15;;
39750;SDS011;37579;51.074;17.004;2024-01-10T10:31:01;19.08;;;13.60;;
39750;SDS011;37579;51.074;17.004;2024-01-10T10:33:28;19.27;;;13.52;;
39750;SDS011;37579;51.074;17.004;2024-01-10T10:35:57;18.98;;;13.02;;
39750;SDS011;37579;51.074;17.004;2024-01-10T10:38:22;20.25;;;13.10;;
39750;SDS011;37579;51.074;17.004;2024-01-10T10:40:48;21.02;;;14.32;;
39750;SDS011;37579;51.074;17.004;2024-01-10T10:43:14;18.27;;;12.57;;
39750;SDS011;37579;51.074;17.004;2024-01-10T10:45:47;18.23;;;12.15;;
39750;SDS011;37579;51.074;17.004;2024-01-10T10:48:18;14.10;;;10.95;;
39750;SDS011;37579;51.074;17.004;2024-01-10T10:50:54;15.68;;;11.52;;
39750;SDS011;37579;51.074;17.004;2024-01-10T10:53:38;14.98;;;9.13;;
39750;SDS011;37579;51.074;17.004;2024-01-10T10:56:06;13.75;;;9.32;;
39750;SDS011;37579;51.074;17.004;2024-01-10T10:58:37;12.20;;;9.20;;
39750;SDS011;37579;51.074;17.004;2024-01-10T11:01:05;14.30;;;9.57;;
39750;SDS011;37579;51.074;17.004;2024-01-10T11:03:33;16.10;;;9.98;;
39750;SDS011;37579;51.074;17.004;2024-01-10T11:06:02;13.93;;;9.73;;
39750;SDS011;37579;51.074;17.004;2024-01-10T11:08:29;13.93;;;9.60;;
39750;SDS011;37579;51.074;17.004;2024-01-10T11:11:03;14.95;;;10.85;;
39750;SDS011;37579;51.074;17.004;2024-01-10T11:24:31;18.92;;;13.48;;
39750;SDS011;37579;51.074;17.004;2024-01-10T11:27:06;17.98;;;12.18;;
39750;SDS011;37579;51.074;17.004;2024-01-10T11:29:37;19.95;;;13.65;;
39750;SDS011;37579;51.074;17.004;2024-01-10T11:32:04;20.73;;;13.93;;
39750;SDS011;37579;51.074;17.004;2024-01-10T11:34:31;19.45;;;13.77;;
39750;SDS011;37579;51.074;17.004;2024-01-10T11:37:09;21.90;;;14.27;;
39750;SDS011;37579;51.074;17.004;2024-01-10T11:39:36;21.15;;;13.88;;
39750;SDS011;37579;51.074;17.004;2024-01-10T11:42:02;21.27;;;14.55;;
39750;SDS011;37579;51.074;17.004;2024-01-10T11:44:28;20.02;;;13.10;;
39750;SDS011;37579;51.074;17.004;2024-01-10T11:46:55;22.15;;;14.32;;
39750;SDS011;37579;51.074;17.004;2024-01-10T11:49:22;20.83;;;14.40;;
39750;SDS011;37579;51.074;17.004;2024-01-10T11:51:50;21.45;;;14.15;;
39750;SDS011;37579;51.074;17.004;2024-01-10T11:54:41;21.92;;;14.60;;
39750;SDS011;37579;51.074;17.004;2024-01-10T11:59:47;22.63;;;14.65;;
39750;SDS011;37579;51.074;17.004;2024-01-10T12:02:16;23.83;;;15.05;;
39750;SDS011;37579;51.074;17.004;2024-01-10T12:04:42;20.60;;;14.60;;
39750;SDS011;37579;51.074;17.004;2024-01-10T12:07:08;21.55;;;14.23;;
39750;SDS011;37579;51.074;17.004;2024-01-10T12:09:34;22.33;;;14.02;;
39750;SDS011;37579;51.074;17.004;2024-01-10T12:12:03;22.00;;;14.70;;
39750;SDS011;37579;51.074;17.004;2024-01-10T12:14:29;21.50;;;14.77;;
39750;SDS011;37579;51.074;17.004;2024-01-10T12:16:59;20.30;;;14.43;;
39750;SDS011;37579;51.074;17.004;2024-01-10T12:19:25;23.90;;;15.10;;
39750;SDS011;37579;51.074;17.004;2024-01-10T12:21:51;22.20;;;14.93;;
39750;SDS011;37579;51.074;17.004;2024-01-10T12:24:17;22.67;;;15.20;;
39750;SDS011;37579;51.074;17.004;2024-01-10T12:26:45;20.85;;;14.18;;
39750;SDS011;37579;51.074;17.004;2024-01-10T12:29:11;21.88;;;14.80;;
39750;SDS011;37579;51.074;17.004;2024-01-10T12:31:37;19.98;;;14.02;;
39750;SDS011;37579;51.074;17.004;2024-01-10T12:34:09;21.58;;;14.38;;
39750;SDS011;37579;51.074;17.004;2024-01-10T12:36:35;20.70;;;14.40;;
39750;SDS011;37579;51.074;17.004;2024-01-10T12:39:01;21.55;;;14.10;;
39750;SDS011;37579;51.074;17.004;2024-01-10T12:41:28;22.33;;;13.38;;
39750;SDS011;37579;51.074;17.004;2024-01-10T12:43:54;18.80;;;13.30;;
39750;SDS011;37579;51.074;17.004;2024-01-10T12:46:20;17.50;;;12.55;;
39750;SDS011;37579;51.074;17.004;2024-01-10T12:49:04;22.25;;;13.88;;
39750;SDS011;37579;51.074;17.004;2024-01-10T12:51:32;19.88;;;13.20;;
39750;SDS011;37579;51.074;17.004;2024-01-10T12:53:59;19.38;;;13.45;;
39750;SDS011;37579;51.074;17.004;2024-01-10T12:56:25;21.20;;;13.48;;
39750;SDS011;37579;51.074;17.004;2024-01-10T12:58:52;20.08;;;13.80;;
39750;SDS011;37579;51.074;17.004;2024-01-10T13:01:18;19.25;;;13.13;;
39750;SDS011;37579;51.074;17.004;2024-01-10T13:03:44;20.40;;;13.63;;
39750;SDS011;37579;51.074;17.004;2024-01-10T13:06:09;20.25;;;13.35;;
39750;SDS011;37579;51.074;17.004;2024-01-10T13:08:36;20.35;;;13.68;;
39750;SDS011;37579;51.074;17.004;2024-01-10T13:11:02;20.70;;;14.10;;
39750;SDS011;37579;51.074;17.004;2024-01-10T13:13:36;19.70;;;13.35;;
39750;SDS011;37579;51.074;17.004;2024-01-10T13:16:02;19.10;;;13.98;;
39750;SDS011;37579;51.074;17.004;2024-01-10T13:18:29;21.52;;;14.10;;
39750;SDS011;37579;51.074;17.004;2024-01-10T13:20:55;19.52;;;13.40;;
39750;SDS011;37579;51.074;17.004;2024-01-10T13:23:22;20.75;;;13.32;;
39750;SDS011;37579;51.074;17.004;2024-01-10T13:25:48;19.80;;;12.35;;
39750;SDS011;37579;51.074;17.004;2024-01-10T13:28:14;18.42;;;13.13;;
39750;SDS011;37579;51.074;17.004;2024-01-10T13:30:40;19.00;;;12.57;;
39750;SDS011;37579;51.074;17.004;2024-01-10T13:33:08;16.42;;;11.32;;
39750;SDS011;37579;51.074;17.004;2024-01-10T13:35:35;19.50;;;12.90;;
39750;SDS011;37579;51.074;17.004;2024-01-10T13:38:01;19.85;;;13.40;;
39750;SDS011;37579;51.074;17.004;2024-01-10T13:40:27;19.17;;;12.30;;
39750;SDS011;37579;51.074;17.004;2024-01-10T13:42:53;20.15;;;13.45;;
39750;SDS011;37579;51.074;17.004;2024-01-10T13:45:19;20.17;;;13.23;;
39750;SDS011;37579;51.074;17.004;2024-01-10T13:47:45;20.08;;;13.02;;
39750;SDS011;37579;51.074;17.004;2024-01-10T13:50:12;20.92;;;13.80;;
39750;SDS011;37579;51.074;17.004;2024-01-10T13:52:38;19.17;;;12.85;;
39750;SDS011;37579;51.074;17.004;2024-01-10T13:55:04;21.20;;;13.43;;
39750;SDS011;37579;51.074;17.004;2024-01-10T13:57:30;21.45;;;14.13;;
39750;SDS011;37579;51.074;17.004;2024-01-10T14:05:37;20.50;;;13.15;;
39750;SDS011;37579;51.074;17.004;2024-01-10T14:08:03;20.08;;;13.77;;
39750;SDS011;37579;51.074;17.004;2024-01-10T14:10:28;20.42;;;13.30;;
39750;SDS011;37579;51.074;17.004;2024-01-10T14:12:54;19.10;;;13.40;;
39750;SDS011;37579;51.074;17.004;2024-01-10T14:15:20;20.58;;;14.20;;
39750;SDS011;37579;51.074;17.004;2024-01-10T14:17:46;17.58;;;13.25;;
39750;SDS011;37579;51.074;17.004;2024-01-10T14:20:11;21.50;;;15.02;;
39750;SDS011;37579;51.074;17.004;2024-01-10T14:22:38;19.90;;;13.95;;
39750;SDS011;37579;51.074;17.004;2024-01-10T14:25:05;21.63;;;13.70;;
39750;SDS011;37579;51.074;17.004;2024-01-10T14:27:31;20.52;;;14.15;;
39750;SDS011;37579;51.074;17.004;2024-01-10T14:29:56;19.52;;;13.90;;